Main page
METAR-TAF:

METAR-TAF

Airports :

Tampere–Pirkkala Airport

Tampere, Finland

latitude: 61-25N, longitude: 023-35E, elevation: 112 m

Current weather observation

The report was made 29 minutes ago, at 11:20 UTC
Wind 7 kt from the West, varying between Southwest and West/Northwest
Temperature 20°C
Humidity 78%
Pressure 1012 hPa
Visibility 10 km or more
Few clouds at a height of 1800 ft
Broken clouds at a height of 4100 ft

METAR: EFTP 121120Z AUTO 26007KT 230V290 9999 FEW018 BKN041 20/16 Q1012

Time: 14:49 (11:49 UTC)

Forecast

The report was made 3 hours and 13 minutes ago, at 08:36 UTC
Forecast valid from 12 at 09 UTC to 13 at 09 UTC
Wind 7 kt from the West
Visibility 10 km or more
Broken clouds at a height of 2000 ft
Temporary
from 12 at 12 UTC to 12 at 18 UTC
Few clouds at a height of 3000 ft, Cumulonimbus.
Probability 30% :
Temporary
from 12 at 15 UTC to 12 at 18 UTC
thunderstorm, rain,

TAF: EFTP 120836Z 1209/1309 27007KT 9999 BKN020 TEMPO 1212/1218 FEW030CB PROB30 TEMPO 1215/1218 TSRA

Weather observations and forecasts of more than 4000 airports (METAR and TAF reports).

The available stations are represented by yellow and red dots on the map.

Hover mouse over dot to see the name of the station.

Then click to see weather observations and forecasts.

To change the map : click on the green buttons with a black cross to zoom in, on the green button with a dash to zoom out, or on the green arrows for adjacent maps.


METAR-TAF: